sensor_id;sensor_type;location;lat;lon;timestamp;P1;durP1;ratioP1;P2;durP2;ratioP2
55292;SDS011;41157;53.560;10.098;2023-04-15T00:01:29;3.83;;;3.30;;
55292;SDS011;41157;53.560;10.098;2023-04-15T00:03:58;4.20;;;3.80;;
55292;SDS011;41157;53.560;10.098;2023-04-15T00:06:27;4.20;;;3.80;;
55292;SDS011;41157;53.560;10.098;2023-04-15T00:08:54;4.53;;;4.03;;
55292;SDS011;41157;53.560;10.098;2023-04-15T00:11:21;4.60;;;3.83;;
55292;SDS011;41157;53.560;10.098;2023-04-15T00:13:48;3.97;;;3.50;;
55292;SDS011;41157;53.560;10.098;2023-04-15T00:16:15;4.03;;;3.63;;
55292;SDS011;41157;53.560;10.098;2023-04-15T00:18:42;5.20;;;3.70;;
55292;SDS011;41157;53.560;10.098;2023-04-15T00:21:09;4.07;;;3.77;;
55292;SDS011;41157;53.560;10.098;2023-04-15T00:23:38;3.90;;;3.57;;
55292;SDS011;41157;53.560;10.098;2023-04-15T00:26:05;3.90;;;3.60;;
55292;SDS011;41157;53.560;10.098;2023-04-15T00:28:32;4.70;;;3.70;;
55292;SDS011;41157;53.560;10.098;2023-04-15T00:30:59;4.90;;;3.90;;
55292;SDS011;41157;53.560;10.098;2023-04-15T00:33:26;4.40;;;3.50;;
55292;SDS011;41157;53.560;10.098;2023-04-15T00:35:53;4.23;;;3.80;;
55292;SDS011;41157;53.560;10.098;2023-04-15T00:38:20;4.00;;;3.70;;
55292;SDS011;41157;53.560;10.098;2023-04-15T00:40:48;4.03;;;3.70;;
55292;SDS011;41157;53.560;10.098;2023-04-15T00:43:16;4.27;;;3.83;;
55292;SDS011;41157;53.560;10.098;2023-04-15T00:45:43;4.57;;;4.10;;
55292;SDS011;41157;53.560;10.098;2023-04-15T00:48:11;4.93;;;4.00;;
55292;SDS011;41157;53.560;10.098;2023-04-15T00:50:38;4.40;;;4.00;;
55292;SDS011;41157;53.560;10.098;2023-04-15T00:53:05;4.90;;;4.40;;
55292;SDS011;41157;53.560;10.098;2023-04-15T00:55:32;4.63;;;4.23;;
55292;SDS011;41157;53.560;10.098;2023-04-15T00:58:01;5.10;;;4.23;;
55292;SDS011;41157;53.560;10.098;2023-04-15T01:00:28;4.33;;;3.93;;
55292;SDS011;41157;53.560;10.098;2023-04-15T01:02:55;4.53;;;4.13;;
55292;SDS011;41157;53.560;10.098;2023-04-15T05:31:35;28.50;;;20.67;;
55292;SDS011;41157;53.560;10.098;2023-04-15T05:34:02;30.33;;;21.30;;
55292;SDS011;41157;53.560;10.098;2023-04-15T05:36:29;29.43;;;21.03;;
55292;SDS011;41157;53.560;10.098;2023-04-15T05:38:56;32.40;;;21.37;;
55292;SDS011;41157;53.560;10.098;2023-04-15T05:41:23;29.43;;;20.63;;
55292;SDS011;41157;53.560;10.098;2023-04-15T05:43:50;29.40;;;20.43;;
55292;SDS011;41157;53.560;10.098;2023-04-15T05:46:17;29.73;;;21.03;;
55292;SDS011;41157;53.560;10.098;2023-04-15T05:48:46;32.27;;;21.63;;
55292;SDS011;41157;53.560;10.098;2023-04-15T05:51:13;29.50;;;21.10;;
55292;SDS011;41157;53.560;10.098;2023-04-15T05:53:40;31.17;;;21.87;;
55292;SDS011;41157;53.560;10.098;2023-04-15T05:56:07;29.13;;;21.47;;
55292;SDS011;41157;53.560;10.098;2023-04-15T05:58:34;30.03;;;22.83;;
55292;SDS011;41157;53.560;10.098;2023-04-15T06:01:02;32.40;;;21.97;;
55292;SDS011;41157;53.560;10.098;2023-04-15T06:03:29;29.67;;;22.00;;
55292;SDS011;41157;53.560;10.098;2023-04-15T06:05:58;32.33;;;22.27;;
55292;SDS011;41157;53.560;10.098;2023-04-15T06:08:25;31.73;;;22.40;;
55292;SDS011;41157;53.560;10.098;2023-04-15T06:10:52;33.60;;;22.63;;
55292;SDS011;41157;53.560;10.098;2023-04-15T06:13:19;29.73;;;20.70;;
55292;SDS011;41157;53.560;10.098;2023-04-15T06:15:46;31.43;;;21.60;;
55292;SDS011;41157;53.560;10.098;2023-04-15T06:18:13;32.70;;;22.47;;
55292;SDS011;41157;53.560;10.098;2023-04-15T06:20:40;33.37;;;22.37;;
55292;SDS011;41157;53.560;10.098;2023-04-15T06:23:09;33.13;;;22.40;;
55292;SDS011;41157;53.560;10.098;2023-04-15T06:25:36;32.77;;;22.60;;
55292;SDS011;41157;53.560;10.098;2023-04-15T06:28:03;30.63;;;22.20;;
55292;SDS011;41157;53.560;10.098;2023-04-15T06:30:30;35.07;;;23.17;;
55292;SDS011;41157;53.560;10.098;2023-04-15T06:32:57;30.83;;;23.30;;
55292;SDS011;41157;53.560;10.098;2023-04-15T06:35:24;34.37;;;24.50;;
55292;SDS011;41157;53.560;10.098;2023-04-15T06:37:51;34.10;;;23.67;;
55292;SDS011;41157;53.560;10.098;2023-04-15T06:40:19;34.43;;;24.50;;
55292;SDS011;41157;53.560;10.098;2023-04-15T06:42:46;33.30;;;23.70;;
55292;SDS011;41157;53.560;10.098;2023-04-15T06:45:13;36.90;;;24.90;;
55292;SDS011;41157;53.560;10.098;2023-04-15T06:47:41;36.90;;;25.43;;
55292;SDS011;41157;53.560;10.098;2023-04-15T06:50:08;33.40;;;23.83;;
55292;SDS011;41157;53.560;10.098;2023-04-15T06:52:35;36.47;;;24.07;;
55292;SDS011;41157;53.560;10.098;2023-04-15T06:55:02;33.53;;;24.33;;
55292;SDS011;41157;53.560;10.098;2023-04-15T06:57:31;36.77;;;24.03;;
55292;SDS011;41157;53.560;10.098;2023-04-15T06:59:58;35.40;;;25.60;;
55292;SDS011;41157;53.560;10.098;2023-04-15T07:02:25;34.53;;;24.87;;
55292;SDS011;41157;53.560;10.098;2023-04-15T07:04:52;35.17;;;24.80;;
55292;SDS011;41157;53.560;10.098;2023-04-15T07:07:19;36.57;;;25.43;;
55292;SDS011;41157;53.560;10.098;2023-04-15T07:09:46;37.67;;;24.67;;
55292;SDS011;41157;53.560;10.098;2023-04-15T07:12:13;33.67;;;24.20;;
55292;SDS011;41157;53.560;10.098;2023-04-15T07:14:42;32.50;;;24.33;;
55292;SDS011;41157;53.560;10.098;2023-04-15T07:17:09;32.73;;;23.63;;
55292;SDS011;41157;53.560;10.098;2023-04-15T07:19:36;33.10;;;24.50;;
55292;SDS011;41157;53.560;10.098;2023-04-15T07:22:03;37.23;;;24.83;;
55292;SDS011;41157;53.560;10.098;2023-04-15T07:24:30;35.03;;;24.27;;
55292;SDS011;41157;53.560;10.098;2023-04-15T07:26:57;33.93;;;23.80;;
55292;SDS011;41157;53.560;10.098;2023-04-15T07:29:24;36.77;;;25.43;;
55292;SDS011;41157;53.560;10.098;2023-04-15T07:31:53;33.17;;;24.23;;
55292;SDS011;41157;53.560;10.098;2023-04-15T07:34:21;35.30;;;24.53;;
55292;SDS011;41157;53.560;10.098;2023-04-15T07:36:48;34.43;;;24.73;;
55292;SDS011;41157;53.560;10.098;2023-04-15T07:39:15;37.10;;;25.47;;
55292;SDS011;41157;53.560;10.098;2023-04-15T07:41:43;34.60;;;24.93;;
55292;SDS011;41157;53.560;10.098;2023-04-15T07:44:10;32.60;;;24.00;;
55292;SDS011;41157;53.560;10.098;2023-04-15T07:46:37;37.93;;;24.33;;
55292;SDS011;41157;53.560;10.098;2023-04-15T07:49:05;41.07;;;26.03;;
55292;SDS011;41157;53.560;10.098;2023-04-15T07:51:33;36.57;;;26.30;;
55292;SDS011;41157;53.560;10.098;2023-04-15T07:54:01;36.00;;;25.67;;
55292;SDS011;41157;53.560;10.098;2023-04-15T07:56:28;38.60;;;27.03;;
55292;SDS011;41157;53.560;10.098;2023-04-15T07:58:55;35.47;;;25.80;;
55292;SDS011;41157;53.560;10.098;2023-04-15T08:01:22;35.47;;;25.87;;
55292;SDS011;41157;53.560;10.098;2023-04-15T08:03:49;37.93;;;25.70;;
55292;SDS011;41157;53.560;10.098;2023-04-15T08:06:18;36.23;;;25.57;;
55292;SDS011;41157;53.560;10.098;2023-04-15T08:08:45;36.90;;;25.63;;
55292;SDS011;41157;53.560;10.098;2023-04-15T08:11:12;39.53;;;26.30;;
55292;SDS011;41157;53.560;10.098;2023-04-15T08:13:39;37.97;;;26.87;;
55292;SDS011;41157;53.560;10.098;2023-04-15T08:16:14;36.50;;;26.17;;
55292;SDS011;41157;53.560;10.098;2023-04-15T08:18:42;37.37;;;26.40;;
55292;SDS011;41157;53.560;10.098;2023-04-15T08:21:09;39.17;;;26.40;;
55292;SDS011;41157;53.560;10.098;2023-04-15T08:23:38;39.83;;;25.60;;
55292;SDS011;41157;53.560;10.098;2023-04-15T08:26:06;36.20;;;27.10;;
55292;SDS011;41157;53.560;10.098;2023-04-15T08:28:33;37.33;;;27.10;;
55292;SDS011;41157;53.560;10.098;2023-04-15T08:31:00;39.83;;;27.77;;
55292;SDS011;41157;53.560;10.098;2023-04-15T08:33:27;40.30;;;27.07;;
55292;SDS011;41157;53.560;10.098;2023-04-15T08:35:54;38.23;;;26.30;;
55292;SDS011;41157;53.560;10.098;2023-04-15T08:38:21;38.53;;;26.40;;
55292;SDS011;41157;53.560;10.098;2023-04-15T08:40:50;41.03;;;27.33;;
55292;SDS011;41157;53.560;10.098;2023-04-15T08:43:18;38.50;;;27.73;;
55292;SDS011;41157;53.560;10.098;2023-04-15T08:45:48;40.13;;;28.60;;
55292;SDS011;41157;53.560;10.098;2023-04-15T08:48:16;40.17;;;28.60;;
55292;SDS011;41157;53.560;10.098;2023-04-15T08:50:44;37.77;;;26.90;;
55292;SDS011;41157;53.560;10.098;2023-04-15T08:53:11;38.27;;;27.10;;
55292;SDS011;41157;53.560;10.098;2023-04-15T08:55:41;48.97;;;33.63;;
55292;SDS011;41157;53.560;10.098;2023-04-15T08:58:11;48.47;;;30.60;;
55292;SDS011;41157;53.560;10.098;2023-04-15T09:00:38;44.10;;;30.63;;
55292;SDS011;41157;53.560;10.098;2023-04-15T09:03:06;41.40;;;28.30;;
55292;SDS011;41157;53.560;10.098;2023-04-15T09:05:34;38.57;;;28.03;;
55292;SDS011;41157;53.560;10.098;2023-04-15T09:08:01;45.80;;;30.40;;
55292;SDS011;41157;53.560;10.098;2023-04-15T09:10:28;40.37;;;28.20;;
55292;SDS011;41157;53.560;10.098;2023-04-15T09:12:56;41.33;;;28.33;;
55292;SDS011;41157;53.560;10.098;2023-04-15T09:15:24;47.27;;;29.93;;
55292;SDS011;41157;53.560;10.098;2023-04-15T09:17:53;42.50;;;29.33;;
55292;SDS011;41157;53.560;10.098;2023-04-15T09:20:20;42.67;;;28.23;;
55292;SDS011;41157;53.560;10.098;2023-04-15T09:22:48;43.43;;;28.33;;
55292;SDS011;41157;53.560;10.098;2023-04-15T09:25:24;42.07;;;27.50;;
55292;SDS011;41157;53.560;10.098;2023-04-15T09:27:52;41.97;;;28.83;;
55292;SDS011;41157;53.560;10.098;2023-04-15T09:30:19;44.17;;;28.43;;
55292;SDS011;41157;53.560;10.098;2023-04-15T09:32:49;43.10;;;28.40;;
55292;SDS011;41157;53.560;10.098;2023-04-15T09:35:16;44.87;;;29.03;;
55292;SDS011;41157;53.560;10.098;2023-04-15T09:37:43;44.27;;;28.67;;
55292;SDS011;41157;53.560;10.098;2023-04-15T09:40:11;39.60;;;27.03;;
55292;SDS011;41157;53.560;10.098;2023-04-15T09:42:52;38.23;;;27.83;;
55292;SDS011;41157;53.560;10.098;2023-04-15T09:45:20;35.20;;;26.33;;
55292;SDS011;41157;53.560;10.098;2023-04-15T09:47:48;34.87;;;25.43;;
55292;SDS011;41157;53.560;10.098;2023-04-15T09:50:18;36.43;;;26.23;;
55292;SDS011;41157;53.560;10.098;2023-04-15T09:52:45;35.67;;;23.73;;
55292;SDS011;41157;53.560;10.098;2023-04-15T09:55:13;33.60;;;24.03;;
55292;SDS011;41157;53.560;10.098;2023-04-15T09:57:41;38.67;;;28.63;;
55292;SDS011;41157;53.560;10.098;2023-04-15T10:00:09;30.83;;;22.77;;
55292;SDS011;41157;53.560;10.098;2023-04-15T10:02:36;33.17;;;21.47;;
55292;SDS011;41157;53.560;10.098;2023-04-15T10:05:04;33.47;;;21.87;;
55292;SDS011;41157;53.560;10.098;2023-04-15T10:07:33;28.93;;;19.13;;
55292;SDS011;41157;53.560;10.098;2023-04-15T10:10:01;26.83;;;20.07;;
55292;SDS011;41157;53.560;10.098;2023-04-15T10:12:29;24.63;;;18.37;;
55292;SDS011;41157;53.560;10.098;2023-04-15T10:14:57;25.80;;;18.83;;
55292;SDS011;41157;53.560;10.098;2023-04-15T10:17:26;24.80;;;17.10;;
55292;SDS011;41157;53.560;10.098;2023-04-15T10:19:53;22.55;;;16.25;;
55292;SDS011;41157;53.560;10.098;2023-04-15T10:22:21;20.27;;;16.20;;
55292;SDS011;41157;53.560;10.098;2023-04-15T10:24:49;18.23;;;14.82;;
55292;SDS011;41157;53.560;10.098;2023-04-15T10:27:17;19.17;;;13.90;;
55292;SDS011;41157;53.560;10.098;2023-04-15T10:29:44;19.77;;;15.15;;
55292;SDS011;41157;53.560;10.098;2023-04-15T10:32:12;18.80;;;15.18;;
55292;SDS011;41157;53.560;10.098;2023-04-15T10:34:39;23.80;;;15.38;;
55292;SDS011;41157;53.560;10.098;2023-04-15T10:37:08;23.40;;;15.23;;
55292;SDS011;41157;53.560;10.098;2023-04-15T10:39:42;20.27;;;15.55;;
55292;SDS011;41157;53.560;10.098;2023-04-15T10:42:11;20.13;;;14.82;;
55292;SDS011;41157;53.560;10.098;2023-04-15T10:44:41;19.85;;;14.30;;
55292;SDS011;41157;53.560;10.098;2023-04-15T10:47:11;17.10;;;12.77;;
55292;SDS011;41157;53.560;10.098;2023-04-15T10:49:41;16.65;;;13.05;;
55292;SDS011;41157;53.560;10.098;2023-04-15T10:52:09;18.27;;;14.02;;
55292;SDS011;41157;53.560;10.098;2023-04-15T10:54:36;17.15;;;12.40;;
55292;SDS011;41157;53.560;10.098;2023-04-15T10:57:07;13.13;;;11.40;;
55292;SDS011;41157;53.560;10.098;2023-04-15T10:59:37;12.68;;;11.07;;
55292;SDS011;41157;53.560;10.098;2023-04-15T11:02:05;16.75;;;11.57;;
55292;SDS011;41157;53.560;10.098;2023-04-15T11:04:50;13.55;;;10.73;;
55292;SDS011;41157;53.560;10.098;2023-04-15T11:07:31;13.85;;;10.75;;
55292;SDS011;41157;53.560;10.098;2023-04-15T11:09:59;12.40;;;10.23;;
55292;SDS011;41157;53.560;10.098;2023-04-15T11:12:32;15.65;;;10.55;;
55292;SDS011;41157;53.560;10.098;2023-04-15T11:15:01;14.13;;;10.30;;
55292;SDS011;41157;53.560;10.098;2023-04-15T11:17:48;11.60;;;9.90;;
55292;SDS011;41157;53.560;10.098;2023-04-15T11:20:15;14.43;;;10.43;;
55292;SDS011;41157;53.560;10.098;2023-04-15T11:22:46;14.00;;;9.80;;
55292;SDS011;41157;53.560;10.098;2023-04-15T11:25:20;14.60;;;9.85;;
55292;SDS011;41157;53.560;10.098;2023-04-15T11:27:47;13.98;;;9.55;;
55292;SDS011;41157;53.560;10.098;2023-04-15T11:30:19;16.75;;;10.15;;
55292;SDS011;41157;53.560;10.098;2023-04-15T11:32:48;12.68;;;10.45;;
55292;SDS011;41157;53.560;10.098;2023-04-15T11:35:15;15.40;;;10.68;;
55292;SDS011;41157;53.560;10.098;2023-04-15T11:37:42;11.93;;;10.45;;
55292;SDS011;41157;53.560;10.098;2023-04-15T11:40:09;13.63;;;10.07;;
55292;SDS011;41157;53.560;10.098;2023-04-15T11:42:36;12.27;;;10.00;;
55292;SDS011;41157;53.560;10.098;2023-04-15T11:45:07;12.13;;;9.70;;
55292;SDS011;41157;53.560;10.098;2023-04-15T11:47:35;11.80;;;9.27;;
55292;SDS011;41157;53.560;10.098;2023-04-15T11:50:16;13.52;;;9.00;;
55292;SDS011;41157;53.560;10.098;2023-04-15T11:52:51;10.48;;;9.30;;
55292;SDS011;41157;53.560;10.098;2023-04-15T11:55:19;15.30;;;8.57;;
55292;SDS011;41157;53.560;10.098;2023-04-15T11:57:46;14.32;;;9.73;;
55292;SDS011;41157;53.560;10.098;2023-04-15T12:00:13;14.38;;;11.20;;
55292;SDS011;41157;53.560;10.098;2023-04-15T12:02:43;11.73;;;9.20;;
55292;SDS011;41157;53.560;10.098;2023-04-15T12:05:10;12.95;;;9.10;;
55292;SDS011;41157;53.560;10.098;2023-04-15T12:10:23;11.35;;;8.43;;
55292;SDS011;41157;53.560;10.098;2023-04-15T12:12:51;12.68;;;9.20;;
55292;SDS011;41157;53.560;10.098;2023-04-15T12:15:20;12.27;;;8.93;;
55292;SDS011;41157;53.560;10.098;2023-04-15T12:17:49;13.25;;;10.25;;
55292;SDS011;41157;53.560;10.098;2023-04-15T12:20:20;12.20;;;9.77;;
55292;SDS011;41157;53.560;10.098;2023-04-15T12:22:47;13.50;;;10.60;;
55292;SDS011;41157;53.560;10.098;2023-04-15T12:25:14;15.83;;;11.70;;
55292;SDS011;41157;53.560;10.098;2023-04-15T12:27:41;11.93;;;9.83;;
55292;SDS011;41157;53.560;10.098;2023-04-15T12:30:17;15.40;;;11.43;;
55292;SDS011;41157;53.560;10.098;2023-04-15T12:32:44;13.80;;;9.57;;
55292;SDS011;41157;53.560;10.098;2023-04-15T12:35:14;12.90;;;9.40;;
55292;SDS011;41157;53.560;10.098;2023-04-15T12:37:43;12.67;;;8.67;;
55292;SDS011;41157;53.560;10.098;2023-04-15T12:40:10;13.60;;;9.13;;
55292;SDS011;41157;53.560;10.098;2023-04-15T12:42:37;19.20;;;9.90;;
55292;SDS011;41157;53.560;10.098;2023-04-15T12:45:04;14.30;;;8.60;;
55292;SDS011;41157;53.560;10.098;2023-04-15T12:47:31;12.10;;;9.37;;
55292;SDS011;41157;53.560;10.098;2023-04-15T12:49:58;10.47;;;8.93;;
55292;SDS011;41157;53.560;10.098;2023-04-15T12:52:27;10.27;;;9.10;;
55292;SDS011;41157;53.560;10.098;2023-04-15T12:54:54;13.57;;;9.43;;
55292;SDS011;41157;53.560;10.098;2023-04-15T12:57:21;17.10;;;10.63;;
55292;SDS011;41157;53.560;10.098;2023-04-15T12:59:48;15.10;;;9.40;;
55292;SDS011;41157;53.560;10.098;2023-04-15T13:02:15;12.37;;;8.83;;
55292;SDS011;41157;53.560;10.098;2023-04-15T13:04:45;19.50;;;13.93;;
55292;SDS011;41157;53.560;10.098;2023-04-15T13:07:12;17.17;;;10.50;;
55292;SDS011;41157;53.560;10.098;2023-04-15T13:09:40;11.90;;;10.30;;
55292;SDS011;41157;53.560;10.098;2023-04-15T13:12:08;16.10;;;9.83;;
55292;SDS011;41157;53.560;10.098;2023-04-15T13:14:37;13.23;;;9.63;;
55292;SDS011;41157;53.560;10.098;2023-04-15T13:17:04;12.93;;;9.67;;
55292;SDS011;41157;53.560;10.098;2023-04-15T13:19:34;11.10;;;9.20;;
55292;SDS011;41157;53.560;10.098;2023-04-15T13:22:01;12.27;;;10.07;;
55292;SDS011;41157;53.560;10.098;2023-04-15T13:24:28;11.90;;;9.27;;
55292;SDS011;41157;53.560;10.098;2023-04-15T13:26:57;13.73;;;9.00;;
55292;SDS011;41157;53.560;10.098;2023-04-15T13:29:24;16.30;;;9.07;;
55292;SDS011;41157;53.560;10.098;2023-04-15T13:31:51;10.63;;;8.53;;
55292;SDS011;41157;53.560;10.098;2023-04-15T13:34:18;10.97;;;8.13;;
55292;SDS011;41157;53.560;10.098;2023-04-15T13:36:45;14.33;;;9.33;;
55292;SDS011;41157;53.560;10.098;2023-04-15T13:39:12;10.30;;;9.20;;
55292;SDS011;41157;53.560;10.098;2023-04-15T13:41:39;10.70;;;9.50;;
55292;SDS011;41157;53.560;10.098;2023-04-15T13:44:08;11.30;;;8.00;;
55292;SDS011;41157;53.560;10.098;2023-04-15T13:46:36;11.50;;;8.03;;
55292;SDS011;41157;53.560;10.098;2023-04-15T13:49:04;10.50;;;8.40;;
55292;SDS011;41157;53.560;10.098;2023-04-15T13:51:31;11.90;;;9.33;;
55292;SDS011;41157;53.560;10.098;2023-04-15T13:54:00;9.97;;;7.67;;
55292;SDS011;41157;53.560;10.098;2023-04-15T13:56:27;10.67;;;7.67;;
55292;SDS011;41157;53.560;10.098;2023-04-15T13:58:54;9.10;;;7.73;;
55292;SDS011;41157;53.560;10.098;2023-04-15T14:01:24;12.10;;;9.67;;
55292;SDS011;41157;53.560;10.098;2023-04-15T14:03:51;8.77;;;7.20;;
55292;SDS011;41157;53.560;10.098;2023-04-15T14:06:18;9.50;;;7.63;;
55292;SDS011;41157;53.560;10.098;2023-04-15T14:08:45;13.20;;;8.07;;
55292;SDS011;41157;53.560;10.098;2023-04-15T14:11:12;12.50;;;9.97;;
55292;SDS011;41157;53.560;10.098;2023-04-15T14:13:39;12.20;;;7.88;;
55292;SDS011;41157;53.560;10.098;2023-04-15T14:16:06;10.57;;;7.20;;
55292;SDS011;41157;53.560;10.098;2023-04-15T14:18:35;7.95;;;7.15;;
55292;SDS011;41157;53.560;10.098;2023-04-15T14:21:02;8.13;;;6.90;;
55292;SDS011;41157;53.560;10.098;2023-04-15T14:23:29;8.88;;;7.15;;
55292;SDS011;41157;53.560;10.098;2023-04-15T14:25:56;9.02;;;7.15;;
55292;SDS011;41157;53.560;10.098;2023-04-15T14:28:23;9.52;;;7.13;;
55292;SDS011;41157;53.560;10.098;2023-04-15T14:30:50;9.25;;;7.22;;
55292;SDS011;41157;53.560;10.098;2023-04-15T14:33:17;8.73;;;6.90;;
55292;SDS011;41157;53.560;10.098;2023-04-15T14:35:45;8.35;;;6.85;;
55292;SDS011;41157;53.560;10.098;2023-04-15T14:38:12;10.45;;;7.60;;
55292;SDS011;41157;53.560;10.098;2023-04-15T14:40:40;7.40;;;6.60;;
55292;SDS011;41157;53.560;10.098;2023-04-15T14:43:07;7.10;;;6.40;;
55292;SDS011;41157;53.560;10.098;2023-04-15T14:45:34;10.38;;;6.65;;
55292;SDS011;41157;53.560;10.098;2023-04-15T14:48:01;9.30;;;6.57;;
55292;SDS011;41157;53.560;10.098;2023-04-15T14:50:28;6.63;;;5.93;;
55292;SDS011;41157;53.560;10.098;2023-04-15T14:52:57;7.40;;;6.53;;
55292;SDS011;41157;53.560;10.098;2023-04-15T14:55:24;8.15;;;5.80;;
55292;SDS011;41157;53.560;10.098;2023-04-15T14:57:51;6.78;;;6.13;;
55292;SDS011;41157;53.560;10.098;2023-04-15T15:00:18;7.57;;;6.13;;
55292;SDS011;41157;53.560;10.098;2023-04-15T15:02:45;7.00;;;6.10;;
55292;SDS011;41157;53.560;10.098;2023-04-15T15:05:12;9.45;;;6.25;;
55292;SDS011;41157;53.560;10.098;2023-04-15T15:07:39;9.75;;;6.32;;
55292;SDS011;41157;53.560;10.098;2023-04-15T15:10:08;8.82;;;7.22;;
55292;SDS011;41157;53.560;10.098;2023-04-15T15:12:35;7.38;;;6.30;;
55292;SDS011;41157;53.560;10.098;2023-04-15T15:15:02;11.32;;;6.82;;
55292;SDS011;41157;53.560;10.098;2023-04-15T15:17:30;7.40;;;6.28;;
55292;SDS011;41157;53.560;10.098;2023-04-15T15:19:57;7.82;;;7.03;;
55292;SDS011;41157;53.560;10.098;2023-04-15T15:22:24;10.90;;;7.10;;
55292;SDS011;41157;53.560;10.098;2023-04-15T15:24:51;8.82;;;7.15;;
55292;SDS011;41157;53.560;10.098;2023-04-15T15:27:20;8.68;;;7.43;;
55292;SDS011;41157;53.560;10.098;2023-04-15T15:29:46;8.50;;;7.40;;
55292;SDS011;41157;53.560;10.098;2023-04-15T15:32:14;7.85;;;7.05;;
55292;SDS011;41157;53.560;10.098;2023-04-15T15:34:40;8.57;;;6.95;;
55292;SDS011;41157;53.560;10.098;2023-04-15T15:37:08;11.07;;;7.60;;
55292;SDS011;41157;53.560;10.098;2023-04-15T15:39:35;10.80;;;7.63;;
55292;SDS011;41157;53.560;10.098;2023-04-15T15:42:02;9.18;;;7.40;;
55292;SDS011;41157;53.560;10.098;2023-04-15T15:44:32;10.27;;;7.95;;
55292;SDS011;41157;53.560;10.098;2023-04-15T15:47:00;10.40;;;7.33;;
55292;SDS011;41157;53.560;10.098;2023-04-15T15:49:27;8.90;;;7.10;;
55292;SDS011;41157;53.560;10.098;2023-04-15T15:51:54;7.27;;;6.57;;
55292;SDS011;41157;53.560;10.098;2023-04-15T15:54:21;8.10;;;7.17;;
55292;SDS011;41157;53.560;10.098;2023-04-15T15:56:48;7.70;;;6.37;;
55292;SDS011;41157;53.560;10.098;2023-04-15T15:59:15;9.63;;;6.70;;
55292;SDS011;41157;53.560;10.098;2023-04-15T16:01:44;8.07;;;7.27;;
55292;SDS011;41157;53.560;10.098;2023-04-15T16:04:12;7.47;;;6.50;;
55292;SDS011;41157;53.560;10.098;2023-04-15T16:06:39;10.73;;;7.07;;
55292;SDS011;41157;53.560;10.098;2023-04-15T16:09:08;9.00;;;7.13;;
55292;SDS011;41157;53.560;10.098;2023-04-15T16:11:35;10.30;;;8.07;;
55292;SDS011;41157;53.560;10.098;2023-04-15T16:14:02;9.50;;;8.27;;
55292;SDS011;41157;53.560;10.098;2023-04-15T16:16:29;10.77;;;7.50;;
55292;SDS011;41157;53.560;10.098;2023-04-15T16:18:58;9.80;;;7.97;;
55292;SDS011;41157;53.560;10.098;2023-04-15T16:21:25;12.13;;;8.83;;
55292;SDS011;41157;53.560;10.098;2023-04-15T16:23:52;14.73;;;9.13;;
55292;SDS011;41157;53.560;10.098;2023-04-15T16:26:19;10.97;;;9.17;;
55292;SDS011;41157;53.560;10.098;2023-04-15T16:28:46;12.90;;;9.83;;
55292;SDS011;41157;53.560;10.098;2023-04-15T16:31:13;15.37;;;9.90;;
55292;SDS011;41157;53.560;10.098;2023-04-15T16:33:40;12.27;;;9.97;;
55292;SDS011;41157;53.560;10.098;2023-04-15T16:36:09;16.77;;;10.90;;
55292;SDS011;41157;53.560;10.098;2023-04-15T16:38:36;12.87;;;10.83;;
55292;SDS011;41157;53.560;10.098;2023-04-15T16:41:03;16.17;;;10.73;;
55292;SDS011;41157;53.560;10.098;2023-04-15T16:43:30;13.03;;;10.57;;
55292;SDS011;41157;53.560;10.098;2023-04-15T16:45:57;17.53;;;11.40;;
55292;SDS011;41157;53.560;10.098;2023-04-15T16:48:24;13.80;;;10.83;;
55292;SDS011;41157;53.560;10.098;2023-04-15T16:50:51;18.37;;;11.07;;
55292;SDS011;41157;53.560;10.098;2023-04-15T16:53:19;19.60;;;11.83;;
55292;SDS011;41157;53.560;10.098;2023-04-15T16:55:46;16.63;;;11.30;;
55292;SDS011;41157;53.560;10.098;2023-04-15T16:58:13;15.70;;;11.43;;
55292;SDS011;41157;53.560;10.098;2023-04-15T17:00:40;18.87;;;11.67;;
55292;SDS011;41157;53.560;10.098;2023-04-15T17:03:08;13.27;;;11.10;;
55292;SDS011;41157;53.560;10.098;2023-04-15T17:05:35;15.10;;;11.57;;
55292;SDS011;41157;53.560;10.098;2023-04-15T17:08:02;14.57;;;12.17;;
55292;SDS011;41157;53.560;10.098;2023-04-15T17:10:31;15.00;;;11.30;;
55292;SDS011;41157;53.560;10.098;2023-04-15T17:12:58;16.47;;;11.87;;
55292;SDS011;41157;53.560;10.098;2023-04-15T17:15:25;14.43;;;11.20;;
55292;SDS011;41157;53.560;10.098;2023-04-15T17:17:52;17.27;;;11.60;;
55292;SDS011;41157;53.560;10.098;2023-04-15T17:20:19;15.57;;;12.40;;
55292;SDS011;41157;53.560;10.098;2023-04-15T17:22:46;16.97;;;12.37;;
55292;SDS011;41157;53.560;10.098;2023-04-15T17:25:13;14.70;;;11.23;;
55292;SDS011;41157;53.560;10.098;2023-04-15T17:27:42;16.20;;;12.13;;
55292;SDS011;41157;53.560;10.098;2023-04-15T17:30:09;17.03;;;12.00;;
55292;SDS011;41157;53.560;10.098;2023-04-15T17:32:36;17.53;;;12.67;;
55292;SDS011;41157;53.560;10.098;2023-04-15T17:35:04;14.07;;;11.63;;
55292;SDS011;41157;53.560;10.098;2023-04-15T17:37:31;17.00;;;12.30;;
55292;SDS011;41157;53.560;10.098;2023-04-15T17:39:58;15.77;;;12.30;;
55292;SDS011;41157;53.560;10.098;2023-04-15T17:42:25;14.63;;;11.63;;
55292;SDS011;41157;53.560;10.098;2023-04-15T17:44:54;14.50;;;11.87;;
55292;SDS011;41157;53.560;10.098;2023-04-15T17:47:21;18.20;;;12.43;;
55292;SDS011;41157;53.560;10.098;2023-04-15T17:49:48;14.20;;;11.97;;
55292;SDS011;41157;53.560;10.098;2023-04-15T17:52:15;15.13;;;12.23;;
55292;SDS011;41157;53.560;10.098;2023-04-15T17:54:42;15.10;;;12.33;;
55292;SDS011;41157;53.560;10.098;2023-04-15T17:57:09;17.83;;;12.47;;
55292;SDS011;41157;53.560;10.098;2023-04-15T17:59:36;16.63;;;12.70;;
55292;SDS011;41157;53.560;10.098;2023-04-15T18:02:09;21.93;;;13.20;;
55292;SDS011;41157;53.560;10.098;2023-04-15T18:04:36;20.77;;;13.60;;
55292;SDS011;41157;53.560;10.098;2023-04-15T18:07:03;17.83;;;12.63;;
55292;SDS011;41157;53.560;10.098;2023-04-15T18:09:30;18.30;;;12.43;;
55292;SDS011;41157;53.560;10.098;2023-04-15T18:11:57;16.70;;;12.93;;
55292;SDS011;41157;53.560;10.098;2023-04-15T18:14:25;16.37;;;13.13;;
55292;SDS011;41157;53.560;10.098;2023-04-15T18:16:52;17.10;;;12.70;;
55292;SDS011;41157;53.560;10.098;2023-04-15T18:19:20;19.33;;;12.33;;
55292;SDS011;41157;53.560;10.098;2023-04-15T18:21:49;20.30;;;13.47;;
55292;SDS011;41157;53.560;10.098;2023-04-15T18:24:16;21.23;;;13.40;;
55292;SDS011;41157;53.560;10.098;2023-04-15T18:26:43;19.10;;;13.13;;
55292;SDS011;41157;53.560;10.098;2023-04-15T18:29:10;19.60;;;14.20;;
55292;SDS011;41157;53.560;10.098;2023-04-15T18:31:37;17.30;;;13.53;;
55292;SDS011;41157;53.560;10.098;2023-04-15T18:34:05;20.90;;;13.53;;
55292;SDS011;41157;53.560;10.098;2023-04-15T18:36:33;19.07;;;13.63;;
55292;SDS011;41157;53.560;10.098;2023-04-15T18:39:00;16.13;;;12.40;;
55292;SDS011;41157;53.560;10.098;2023-04-15T18:41:28;17.10;;;12.87;;
55292;SDS011;41157;53.560;10.098;2023-04-15T18:43:55;17.40;;;13.40;;
55292;SDS011;41157;53.560;10.098;2023-04-15T18:46:22;17.97;;;13.73;;
55292;SDS011;41157;53.560;10.098;2023-04-15T18:48:49;17.90;;;13.03;;